Time;durP1;ratioP1;P1;durP2;ratioP2;P2;SDS_P1;SDS_P2;PMS_P1;PMS_P2;Temp;Humidity;BMP_temperature;BMP_pressure;BME280_temperature;BME280_humidity;BME280_pressure;Samples;Min_cycle;Max_cycle;Signal;HPM_P1;HPM_P2
2023/06/10 00:01:39;;;;;;;;;;;23.60;51.70;;;;;;5071560;28;19920;-67
2023/06/10 00:04:05;;;;;;;;;;;23.60;51.70;;;;;;5071369;28;19920;-67
2023/06/10 00:06:35;;;;;;;;;;;23.60;51.70;;;;;;5071234;28;19920;-67
2023/06/10 00:09:02;;;;;;;;;;;23.60;51.70;;;;;;5071519;28;20431;-68
2023/06/10 00:11:27;;;;;;;;;;;23.50;51.70;;;;;;5072305;28;19930;-67
2023/06/10 00:13:53;;;;;;;;;;;23.50;51.70;;;;;;5071506;28;20287;-67
2023/06/10 00:16:19;;;;;;;;;;;23.50;51.70;;;;;;5071522;28;19925;-67
2023/06/10 00:18:44;;;;;;;;;;;23.50;51.70;;;;;;5071159;28;20320;-68
2023/06/10 00:21:10;;;;;;;;;;;23.50;51.70;;;;;;5071136;28;19925;-67
2023/06/10 00:23:37;;;;;;;;;;;23.50;51.60;;;;;;5072273;28;19927;-67
2023/06/10 00:26:03;;;;;;;;;;;23.50;51.60;;;;;;5071026;28;19978;-67
2023/06/10 00:28:28;;;;;;;;;;;23.50;51.60;;;;;;5071183;28;19920;-67
2023/06/10 00:30:54;;;;;;;;;;;23.50;51.60;;;;;;5071061;28;19928;-67
2023/06/10 00:33:20;;;;;;;;;;;23.50;51.60;;;;;;5072238;28;19991;-67
2023/06/10 00:35:46;;;;;;;;;;;23.50;51.60;;;;;;5070990;28;19921;-67
2023/06/10 00:38:13;;;;;;;;;;;23.50;51.60;;;;;;5072209;28;20291;-67
2023/06/10 00:40:39;;;;;;;;;;;23.50;51.50;;;;;;5070902;28;19927;-68
2023/06/10 00:43:05;;;;;;;;;;;23.40;51.50;;;;;;5071165;28;19964;-67
2023/06/10 00:45:30;;;;;;;;;;;23.40;51.50;;;;;;5071242;28;19968;-67
2023/06/10 00:47:56;;;;;;;;;;;23.40;51.50;;;;;;5071231;28;20409;-67
2023/06/10 00:50:21;;;;;;;;;;;23.40;51.50;;;;;;5071174;28;19970;-67
2023/06/10 00:52:48;;;;;;;;;;;23.40;51.50;;;;;;5070730;28;20425;-67
2023/06/10 00:55:15;;;;;;;;;;;23.40;51.50;;;;;;5071163;28;19920;-67
2023/06/10 00:57:44;;;;;;;;;;;23.40;51.50;;;;;;5072043;28;20398;-69
2023/06/10 01:00:10;;;;;;;;;;;23.40;51.40;;;;;;5070682;28;19928;-67
2023/06/10 01:02:36;;;;;;;;;;;23.40;51.50;;;;;;5071075;28;20376;-67
2023/06/10 01:05:02;;;;;;;;;;;23.40;51.40;;;;;;5070851;28;19978;-67
2023/06/10 01:07:30;;;;;;;;;;;23.30;51.40;;;;;;5070994;28;19924;-67
2023/06/10 01:12:50;;;;;;;;;;;23.30;51.40;;;;;;5110209;27;19919;-67
2023/06/10 01:15:16;;;;;;;;;;;23.30;51.30;;;;;;5109289;28;19924;-68
2023/06/10 01:18:02;;;;;;;;;;;23.30;51.30;;;;;;5109157;28;19973;-67
2023/06/10 01:20:29;;;;;;;;;;;23.30;51.30;;;;;;5108997;28;20300;-67
2023/06/10 01:22:55;;;;;;;;;;;23.30;51.30;;;;;;5109053;28;19973;-67
2023/06/10 01:25:27;;;;;;;;;;;23.20;51.30;;;;;;5109964;28;19919;-67
2023/06/10 01:28:12;;;;;;;;;;;23.30;51.40;;;;;;5108723;28;19974;-67
2023/06/10 01:30:45;;;;;;;;;;;23.20;51.30;;;;;;5108577;28;19973;-70
2023/06/10 01:33:12;;;;;;;;;;;23.20;51.30;;;;;;5108550;28;20379;-67
2023/06/10 01:35:39;;;;;;;;;;;23.20;51.20;;;;;;5108545;28;19926;-67
2023/06/10 01:38:04;;;;;;;;;;;23.20;51.30;;;;;;5110006;28;20451;-68
2023/06/10 01:40:30;;;;;;;;;;;23.20;51.30;;;;;;5108803;28;19920;-67
2023/06/10 01:42:56;;;;;;;;;;;23.20;51.30;;;;;;5108458;28;19967;-68
2023/06/10 01:45:21;;;;;;;;;;;23.20;51.30;;;;;;5109671;28;19967;-70
2023/06/10 01:47:47;;;;;;;;;;;23.20;51.30;;;;;;5108588;28;20367;-67
2023/06/10 01:50:12;;;;;;;;;;;23.20;51.30;;;;;;5108234;28;19945;-67
2023/06/10 01:52:38;;;;;;;;;;;23.10;51.20;;;;;;5108579;28;20090;-67
2023/06/10 01:55:04;;;;;;;;;;;23.10;51.20;;;;;;5108429;28;20398;-67
2023/06/10 01:57:29;;;;;;;;;;;23.10;51.20;;;;;;5109539;28;19931;-67
2023/06/10 01:59:55;;;;;;;;;;;23.10;51.20;;;;;;5108096;28;20294;-67
2023/06/10 02:02:21;;;;;;;;;;;23.10;51.20;;;;;;5108050;28;19920;-67
2023/06/10 02:04:47;;;;;;;;;;;23.10;51.20;;;;;;5107946;28;20387;-67
2023/06/10 02:07:12;;;;;;;;;;;23.10;51.30;;;;;;5108207;28;19973;-67
2023/06/10 02:09:38;;;;;;;;;;;23.10;51.30;;;;;;5108309;28;20354;-67
2023/06/10 02:12:04;;;;;;;;;;;23.10;51.20;;;;;;5107497;28;19931;-68
2023/06/10 02:14:30;;;;;;;;;;;23.00;51.20;;;;;;5107975;28;19920;-67
2023/06/10 02:16:57;;;;;;;;;;;23.00;51.20;;;;;;5108161;28;20322;-67
2023/06/10 02:19:23;;;;;;;;;;;23.00;51.20;;;;;;5107709;28;20405;-68
2023/06/10 02:21:48;;;;;;;;;;;23.00;51.20;;;;;;5106389;28;19924;-67
2023/06/10 02:24:14;;;;;;;;;;;23.00;51.20;;;;;;5094014;28;19927;-67
2023/06/10 02:26:40;;;;;;;;;;;23.00;51.20;;;;;;5093969;28;19921;-68
2023/06/10 02:29:05;;;;;;;;;;;23.00;51.30;;;;;;5095685;28;20275;-70
2023/06/10 02:31:31;;;;;;;;;;;23.00;51.20;;;;;;5093828;28;19930;-67
2023/06/10 02:33:56;;;;;;;;;;;23.00;51.30;;;;;;5093961;28;20000;-67
2023/06/10 02:36:23;;;;;;;;;;;22.90;51.20;;;;;;5094036;28;19924;-67
2023/06/10 02:38:49;;;;;;;;;;;22.90;51.20;;;;;;5094133;28;19924;-67
2023/06/10 02:41:15;;;;;;;;;;;22.90;51.20;;;;;;5093785;28;20383;-68
2023/06/10 02:43:40;;;;;;;;;;;22.90;51.20;;;;;;5094972;28;19927;-67
2023/06/10 02:46:06;;;;;;;;;;;22.90;51.20;;;;;;5095119;28;19920;-67
2023/06/10 02:48:31;;;;;;;;;;;22.90;51.20;;;;;;5094800;28;19920;-67
2023/06/10 02:50:57;;;;;;;;;;;22.90;51.20;;;;;;5093486;28;19931;-67
2023/06/10 02:53:22;;;;;;;;;;;22.90;51.30;;;;;;5093527;28;19924;-67
2023/06/10 02:55:48;;;;;;;;;;;22.90;51.30;;;;;;5094970;28;19920;-67
2023/06/10 02:58:13;;;;;;;;;;;22.80;51.20;;;;;;5093395;28;20287;-68
2023/06/10 03:00:41;;;;;;;;;;;22.90;51.30;;;;;;5093528;28;19977;-68
2023/06/10 03:03:06;;;;;;;;;;;22.80;51.20;;;;;;5093665;28;19920;-67
2023/06/10 03:05:32;;;;;;;;;;;22.80;51.30;;;;;;5093242;28;19927;-67
2023/06/10 03:07:58;;;;;;;;;;;22.80;51.20;;;;;;5093534;28;19999;-68
2023/06/10 03:10:24;;;;;;;;;;;22.80;51.30;;;;;;5094974;28;19942;-67
2023/06/10 03:12:49;;;;;;;;;;;22.80;51.30;;;;;;5096744;28;19923;-67
2023/06/10 03:15:15;;;;;;;;;;;22.70;51.20;;;;;;5096757;28;20287;-69
2023/06/10 03:17:41;;;;;;;;;;;22.80;51.20;;;;;;5114677;28;19920;-67
2023/06/10 03:20:10;;;;;;;;;;;22.80;51.30;;;;;;5096706;28;20382;-68
2023/06/10 03:22:35;;;;;;;;;;;22.80;51.30;;;;;;5096321;28;20006;-67
2023/06/10 03:25:01;;;;;;;;;;;22.70;51.20;;;;;;5096517;28;20010;-67
2023/06/10 03:27:26;;;;;;;;;;;22.70;51.20;;;;;;5130458;27;19920;-67
2023/06/10 03:29:52;;;;;;;;;;;22.70;51.20;;;;;;5114373;28;19920;-68
2023/06/10 03:32:17;;;;;;;;;;;22.70;51.20;;;;;;5114358;28;19967;-68
2023/06/10 03:34:44;;;;;;;;;;;22.70;51.20;;;;;;5129424;27;19920;-67
2023/06/10 03:37:10;;;;;;;;;;;22.70;51.20;;;;;;5096032;28;19968;-67
2023/06/10 03:39:35;;;;;;;;;;;22.70;51.20;;;;;;5096236;28;19924;-67
2023/06/10 03:42:01;;;;;;;;;;;22.70;51.20;;;;;;5114359;28;19927;-68
2023/06/10 03:44:27;;;;;;;;;;;22.70;51.20;;;;;;5096065;28;20010;-68
2023/06/10 03:46:54;;;;;;;;;;;22.60;51.20;;;;;;5096131;28;20006;-67
2023/06/10 03:49:19;;;;;;;;;;;22.60;51.20;;;;;;5114020;28;19924;-67
2023/06/10 03:51:45;;;;;;;;;;;22.60;51.20;;;;;;5129858;27;19927;-67
2023/06/10 03:54:10;;;;;;;;;;;22.60;51.20;;;;;;5095679;28;19927;-67
2023/06/10 03:56:36;;;;;;;;;;;22.60;51.10;;;;;;5130139;27;19930;-67
2023/06/10 03:59:01;;;;;;;;;;;22.60;51.20;;;;;;5095476;28;20272;-67
2023/06/10 04:01:27;;;;;;;;;;;22.60;51.20;;;;;;5095598;28;19949;-67
2023/06/10 04:03:54;;;;;;;;;;;22.60;51.20;;;;;;5095495;28;19920;-70
2023/06/10 04:06:19;;;;;;;;;;;22.60;51.20;;;;;;5095655;28;19924;-68
2023/06/10 04:08:45;;;;;;;;;;;22.60;51.20;;;;;;5113685;28;20005;-67
2023/06/10 04:11:10;;;;;;;;;;;22.50;51.10;;;;;;5129157;27;19976;-67
2023/06/10 04:13:36;;;;;;;;;;;22.60;51.20;;;;;;5095352;28;20026;-67
2023/06/10 04:16:02;;;;;;;;;;;22.50;51.20;;;;;;5095143;28;19927;-67
2023/06/10 04:18:28;;;;;;;;;;;22.50;51.20;;;;;;5095335;28;19919;-67
2023/06/10 04:20:54;;;;;;;;;;;22.50;51.10;;;;;;5113493;28;20328;-67
2023/06/10 04:23:19;;;;;;;;;;;22.50;51.20;;;;;;5113329;28;19973;-67
2023/06/10 04:25:45;;;;;;;;;;;22.50;51.10;;;;;;5095127;28;19920;-67
2023/06/10 04:28:10;;;;;;;;;;;22.50;51.20;;;;;;5095121;28;20341;-67
2023/06/10 04:30:36;;;;;;;;;;;22.50;51.10;;;;;;5094927;28;19923;-67
2023/06/10 04:33:01;;;;;;;;;;;22.50;51.20;;;;;;5113739;28;19954;-68
2023/06/10 04:35:27;;;;;;;;;;;22.50;51.20;;;;;;5095248;28;19920;-68
2023/06/10 04:37:53;;;;;;;;;;;22.50;51.20;;;;;;5095142;28;20064;-67
2023/06/10 04:40:19;;;;;;;;;;;22.50;51.20;;;;;;5095130;28;19924;-68
2023/06/10 04:42:45;;;;;;;;;;;22.40;51.40;;;;;;5094845;28;20430;-67
2023/06/10 04:45:11;;;;;;;;;;;22.50;51.30;;;;;;5078036;28;19919;-67
2023/06/10 04:47:36;;;;;;;;;;;22.40;51.30;;;;;;5094791;28;19919;-67
2023/06/10 04:50:03;;;;;;;;;;;22.40;51.20;;;;;;5112978;28;19927;-68
2023/06/10 04:52:28;;;;;;;;;;;22.40;51.20;;;;;;5094646;28;19972;-67
2023/06/10 04:54:54;;;;;;;;;;;22.40;51.40;;;;;;5112806;28;19920;-67
2023/06/10 04:57:20;;;;;;;;;;;22.40;51.40;;;;;;5094694;28;19927;-67
2023/06/10 04:59:46;;;;;;;;;;;22.40;51.40;;;;;;5112986;28;19926;-67
2023/06/10 05:02:11;;;;;;;;;;;22.40;51.40;;;;;;5112783;28;19965;-67
2023/06/10 05:04:37;;;;;;;;;;;22.40;51.50;;;;;;5094540;28;20383;-67
2023/06/10 05:07:02;;;;;;;;;;;22.30;51.40;;;;;;5094771;28;19923;-68
2023/06/10 05:09:28;;;;;;;;;;;22.40;51.50;;;;;;5112692;28;19920;-68
2023/06/10 05:11:53;;;;;;;;;;;22.40;51.50;;;;;;5094166;28;19924;-67
2023/06/10 05:14:20;;;;;;;;;;;22.40;51.60;;;;;;5094522;28;20374;-68
2023/06/10 05:16:46;;;;;;;;;;;22.40;51.60;;;;;;5094609;28;19927;-70
2023/06/10 05:19:12;;;;;;;;;;;22.40;51.60;;;;;;5094809;28;20275;-67
2023/06/10 05:21:37;;;;;;;;;;;22.40;51.50;;;;;;5094651;28;19920;-68
2023/06/10 05:24:03;;;;;;;;;;;22.30;51.50;;;;;;5128428;28;19975;-67
2023/06/10 05:26:29;;;;;;;;;;;22.40;51.60;;;;;;5094393;28;19924;-67
2023/06/10 05:28:54;;;;;;;;;;;22.40;51.60;;;;;;5112737;28;19966;-67
2023/06/10 05:31:20;;;;;;;;;;;22.40;51.60;;;;;;5128380;28;20033;-67
2023/06/10 05:33:45;;;;;;;;;;;22.30;51.60;;;;;;5128337;28;19926;-67
2023/06/10 05:36:10;;;;;;;;;;;22.40;51.70;;;;;;5094241;28;19924;-67
2023/06/10 05:38:36;;;;;;;;;;;22.30;51.70;;;;;;5112498;28;19974;-67
2023/06/10 05:41:02;;;;;;;;;;;22.40;51.80;;;;;;5094498;28;19928;-67
2023/06/10 05:43:27;;;;;;;;;;;22.30;51.70;;;;;;5128358;28;19920;-67
2023/06/10 05:45:53;;;;;;;;;;;22.30;51.80;;;;;;5112598;28;19946;-67
2023/06/10 05:48:19;;;;;;;;;;;22.30;52.50;;;;;;5112397;28;20322;-69
2023/06/10 05:50:48;;;;;;;;;;;22.30;51.90;;;;;;5094183;28;20371;-67
2023/06/10 05:53:14;;;;;;;;;;;22.30;52.00;;;;;;5112262;28;19920;-67
2023/06/10 05:55:42;;;;;;;;;;;22.30;51.90;;;;;;5094294;28;19955;-67
2023/06/10 05:58:08;;;;;;;;;;;22.30;52.00;;;;;;5114103;28;20352;-67
2023/06/10 06:00:34;;;;;;;;;;;22.30;52.00;;;;;;5097887;28;19919;-68
2023/06/10 06:02:59;;;;;;;;;;;22.30;52.00;;;;;;5097874;28;20006;-67
2023/06/10 06:05:25;;;;;;;;;;;22.30;52.10;;;;;;5098113;28;20014;-68
2023/06/10 06:07:51;;;;;;;;;;;22.20;52.00;;;;;;5131987;27;19920;-67
2023/06/10 06:10:17;;;;;;;;;;;22.30;52.20;;;;;;5097570;28;19926;-67
2023/06/10 06:12:42;;;;;;;;;;;22.30;52.20;;;;;;5098082;28;19993;-68
2023/06/10 06:15:08;;;;;;;;;;;22.30;52.20;;;;;;5097640;28;19923;-67
2023/06/10 06:17:34;;;;;;;;;;;22.30;52.20;;;;;;5116083;28;19920;-67
2023/06/10 06:19:59;;;;;;;;;;;22.30;52.20;;;;;;5097564;28;20363;-68
2023/06/10 06:22:25;;;;;;;;;;;22.30;52.30;;;;;;5115920;28;19920;-68
2023/06/10 06:24:50;;;;;;;;;;;22.30;52.30;;;;;;5097422;28;20256;-67
2023/06/10 06:27:16;;;;;;;;;;;22.20;52.30;;;;;;5097367;28;19920;-67
2023/06/10 06:29:41;;;;;;;;;;;22.30;52.30;;;;;;5115589;28;19970;-67
2023/06/10 06:32:07;;;;;;;;;;;22.20;52.30;;;;;;5097394;28;19927;-67
2023/06/10 06:34:33;;;;;;;;;;;22.20;52.30;;;;;;5115483;28;19923;-67
2023/06/10 06:36:59;;;;;;;;;;;22.30;53.10;;;;;;5097263;28;19924;-67
2023/06/10 06:39:24;;;;;;;;;;;22.20;52.40;;;;;;5115458;28;20060;-67
2023/06/10 06:41:50;;;;;;;;;;;22.20;52.50;;;;;;5080468;28;20385;-68
2023/06/10 06:44:15;;;;;;;;;;;22.20;52.30;;;;;;5097072;28;19931;-67
2023/06/10 06:46:41;;;;;;;;;;;22.20;52.50;;;;;;5097322;28;19919;-67
2023/06/10 06:49:06;;;;;;;;;;;22.20;52.50;;;;;;5115424;28;20025;-67
2023/06/10 06:51:31;;;;;;;;;;;22.30;52.60;;;;;;5097040;28;20329;-67
2023/06/10 06:53:58;;;;;;;;;;;22.30;52.60;;;;;;5097210;28;19931;-68
2023/06/10 06:56:24;;;;;;;;;;;22.20;52.60;;;;;;5115616;28;19919;-67
2023/06/10 06:58:50;;;;;;;;;;;22.30;52.60;;;;;;5115013;28;20653;-67
2023/06/10 07:01:15;;;;;;;;;;;22.20;52.60;;;;;;5115090;28;20293;-67
2023/06/10 07:03:41;;;;;;;;;;;22.20;52.60;;;;;;5115057;28;20432;-67
2023/06/10 07:06:06;;;;;;;;;;;22.30;52.50;;;;;;5096876;28;19923;-67
2023/06/10 07:08:32;;;;;;;;;;;22.20;52.60;;;;;;5114838;28;19926;-67
2023/06/10 07:10:57;;;;;;;;;;;22.20;52.50;;;;;;5096407;28;19924;-67
2023/06/10 07:13:23;;;;;;;;;;;22.20;52.50;;;;;;5130667;27;19920;-67
2023/06/10 07:15:49;;;;;;;;;;;22.20;52.50;;;;;;5114766;28;19994;-67
2023/06/10 07:18:15;;;;;;;;;;;22.20;52.60;;;;;;5096679;28;19964;-68
2023/06/10 07:20:41;;;;;;;;;;;22.30;52.80;;;;;;5096646;28;19919;-68
2023/06/10 07:23:06;;;;;;;;;;;22.30;52.70;;;;;;5096574;28;19926;-67
2023/06/10 07:25:32;;;;;;;;;;;22.20;52.60;;;;;;5130464;27;19920;-67
2023/06/10 07:27:57;;;;;;;;;;;22.20;52.50;;;;;;5096422;28;19920;-67
2023/06/10 07:30:23;;;;;;;;;;;22.30;52.50;;;;;;5096145;28;19919;-67
2023/06/10 07:32:48;;;;;;;;;;;22.30;52.70;;;;;;5114624;28;20054;-68
2023/06/10 07:35:14;;;;;;;;;;;22.30;52.80;;;;;;5114656;28;19919;-68
2023/06/10 07:37:39;;;;;;;;;;;22.30;52.70;;;;;;5114315;28;19993;-67
2023/06/10 07:40:05;;;;;;;;;;;22.30;52.80;;;;;;5096035;28;19919;-67
2023/06/10 07:42:32;;;;;;;;;;;22.30;52.80;;;;;;5130068;27;20562;-68
2023/06/10 07:44:58;;;;;;;;;;;22.30;52.80;;;;;;5130012;27;19920;-68
2023/06/10 07:47:23;;;;;;;;;;;22.30;52.60;;;;;;5129941;27;19920;-67
2023/06/10 07:49:49;;;;;;;;;;;22.30;52.80;;;;;;5129987;27;20014;-67
2023/06/10 07:52:14;;;;;;;;;;;22.30;52.80;;;;;;5095731;28;20180;-67
2023/06/10 07:54:40;;;;;;;;;;;22.30;53.00;;;;;;5114079;28;20286;-67
2023/06/10 07:57:07;;;;;;;;;;;22.30;53.00;;;;;;5095665;28;20405;-67
2023/06/10 07:59:32;;;;;;;;;;;22.30;52.70;;;;;;5095551;28;19927;-67
2023/06/10 08:01:58;;;;;;;;;;;22.30;52.80;;;;;;5095474;28;19924;-67
2023/06/10 08:04:23;;;;;;;;;;;22.30;52.90;;;;;;5095859;28;19984;-67
2023/06/10 08:06:49;;;;;;;;;;;22.30;52.80;;;;;;5095894;28;19927;-68
2023/06/10 08:09:14;;;;;;;;;;;22.30;52.80;;;;;;5129903;27;19920;-68
2023/06/10 08:11:40;;;;;;;;;;;22.30;52.70;;;;;;5129379;27;19931;-68
2023/06/10 08:14:05;;;;;;;;;;;22.30;52.60;;;;;;5095273;28;19920;-67
2023/06/10 08:16:31;;;;;;;;;;;22.30;52.90;;;;;;5095265;28;19935;-67
2023/06/10 08:18:57;;;;;;;;;;;22.40;52.80;;;;;;5095519;28;19920;-68
2023/06/10 08:21:22;;;;;;;;;;;22.40;52.70;;;;;;5094928;28;19944;-67
2023/06/10 08:23:48;;;;;;;;;;;22.40;53.00;;;;;;5095351;28;20283;-67
2023/06/10 08:26:13;;;;;;;;;;;22.30;52.70;;;;;;5095451;28;20018;-67
2023/06/10 08:28:38;;;;;;;;;;;22.40;52.60;;;;;;5095311;28;19930;-67
2023/06/10 08:31:04;;;;;;;;;;;22.40;52.60;;;;;;5095175;28;20018;-67
2023/06/10 08:33:30;;;;;;;;;;;22.30;52.50;;;;;;5095299;28;20323;-70
2023/06/10 08:35:55;;;;;;;;;;;22.40;52.50;;;;;;5113158;28;19920;-67
2023/06/10 08:38:21;;;;;;;;;;;22.40;52.40;;;;;;5095215;28;19919;-67
2023/06/10 08:40:46;;;;;;;;;;;22.40;52.40;;;;;;5095171;28;19919;-67
2023/06/10 08:43:17;;;;;;;;;;;22.40;52.40;;;;;;5113098;28;20393;-67
2023/06/10 08:45:47;;;;;;;;;;;22.40;52.40;;;;;;5128848;27;19973;-68
2023/06/10 08:48:14;;;;;;;;;;;22.40;52.60;;;;;;5094871;28;19932;-67
2023/06/10 08:50:40;;;;;;;;;;;22.40;52.70;;;;;;5094785;28;20018;-67
2023/06/10 08:53:07;;;;;;;;;;;22.40;52.40;;;;;;5095084;28;19920;-67
2023/06/10 08:55:35;;;;;;;;;;;22.40;52.60;;;;;;5094612;28;19926;-67
2023/06/10 08:58:01;;;;;;;;;;;22.40;52.70;;;;;;5094928;28;19969;-67
2023/06/10 09:00:27;;;;;;;;;;;22.50;52.90;;;;;;5112743;28;20328;-67
2023/06/10 09:02:53;;;;;;;;;;;22.50;52.90;;;;;;5094571;28;19949;-67
2023/06/10 09:05:19;;;;;;;;;;;22.50;52.90;;;;;;5094825;28;20018;-67
2023/06/10 09:07:45;;;;;;;;;;;22.50;52.90;;;;;;5113018;28;19919;-67
2023/06/10 09:10:11;;;;;;;;;;;22.50;52.90;;;;;;5094311;28;20009;-68
2023/06/10 09:12:37;;;;;;;;;;;22.50;52.80;;;;;;5094424;28;19924;-67
2023/06/10 09:15:03;;;;;;;;;;;22.50;52.60;;;;;;5094352;28;19950;-67
2023/06/10 09:17:29;;;;;;;;;;;22.60;52.80;;;;;;5128871;28;20150;-67
2023/06/10 09:19:56;;;;;;;;;;;22.60;52.50;;;;;;5112684;28;20199;-67
2023/06/10 09:22:23;;;;;;;;;;;22.60;52.60;;;;;;5112645;28;19924;-67
2023/06/10 09:24:48;;;;;;;;;;;22.60;52.70;;;;;;5094434;28;20383;-67
2023/06/10 09:27:14;;;;;;;;;;;22.60;52.70;;;;;;5128538;28;19941;-68
2023/06/10 09:29:55;;;;;;;;;;;22.60;52.70;;;;;;5094724;28;19919;-67
2023/06/10 09:32:21;;;;;;;;;;;22.70;52.70;;;;;;5128896;27;19930;-67
2023/06/10 09:34:47;;;;;;;;;;;22.60;52.50;;;;;;5132617;27;20010;-67
2023/06/10 09:37:13;;;;;;;;;;;22.70;52.50;;;;;;5098609;28;19919;-67
2023/06/10 09:39:39;;;;;;;;;;;22.60;52.60;;;;;;5116776;28;20348;-67
2023/06/10 09:42:18;;;;;;;;;;;22.70;52.50;;;;;;5098485;28;19920;-67
2023/06/10 09:44:51;;;;;;;;;;;22.70;52.60;;;;;;5116478;28;19919;-67
2023/06/10 09:47:20;;;;;;;;;;;22.70;52.60;;;;;;5116423;28;20343;-67
2023/06/10 09:49:46;;;;;;;;;;;22.70;52.60;;;;;;5098505;28;19920;-67
2023/06/10 09:52:11;;;;;;;;;;;22.70;52.50;;;;;;5132187;27;19924;-67
2023/06/10 09:54:37;;;;;;;;;;;22.70;52.50;;;;;;5098145;28;19927;-67
2023/06/10 09:57:07;;;;;;;;;;;22.70;52.50;;;;;;5131365;27;19924;-67
2023/06/10 09:59:33;;;;;;;;;;;22.70;52.50;;;;;;5098177;28;19981;-68
2023/06/10 10:02:00;;;;;;;;;;;22.70;52.50;;;;;;5098204;28;20333;-70
2023/06/10 10:04:26;;;;;;;;;;;22.80;52.80;;;;;;5097904;28;20379;-69
2023/06/10 10:06:52;;;;;;;;;;;22.80;52.80;;;;;;5116122;28;20337;-70
2023/06/10 10:09:18;;;;;;;;;;;22.90;52.90;;;;;;5116142;28;19945;-70
2023/06/10 10:11:43;;;;;;;;;;;22.90;52.80;;;;;;5115544;28;19970;-70
2023/06/10 10:14:09;;;;;;;;;;;23.00;52.80;;;;;;5098011;28;19934;-71
2023/06/10 10:16:40;;;;;;;;;;;23.00;52.70;;;;;;5116090;28;19955;-70
2023/06/10 10:19:08;;;;;;;;;;;23.00;52.80;;;;;;5097932;28;20309;-70
2023/06/10 10:21:37;;;;;;;;;;;23.10;53.00;;;;;;5097833;28;19920;-71
2023/06/10 10:24:07;;;;;;;;;;;23.20;53.10;;;;;;5097487;28;19958;-69
2023/06/10 10:26:34;;;;;;;;;;;23.10;53.00;;;;;;5097731;28;19927;-71
2023/06/10 10:29:18;;;;;;;;;;;23.20;53.10;;;;;;5115935;28;20324;-69
2023/06/10 10:31:44;;;;;;;;;;;23.20;53.10;;;;;;5096892;28;20014;-70
2023/06/10 10:34:15;;;;;;;;;;;23.20;53.20;;;;;;5093839;28;19920;-70
2023/06/10 10:36:40;;;;;;;;;;;23.30;53.40;;;;;;5097188;28;19946;-68
2023/06/10 10:39:07;;;;;;;;;;;23.30;53.30;;;;;;5115382;28;20371;-68
2023/06/10 10:41:33;;;;;;;;;;;23.30;53.20;;;;;;5115697;28;19927;-68
2023/06/10 10:43:59;;;;;;;;;;;23.30;53.00;;;;;;5096471;28;19931;-66
2023/06/10 10:46:27;;;;;;;;;;;23.30;53.30;;;;;;5097242;28;19926;-67
2023/06/10 10:48:56;;;;;;;;;;;23.30;53.50;;;;;;5097139;28;20294;-68
2023/06/10 10:51:22;;;;;;;;;;;23.30;53.90;;;;;;5097172;28;19970;-65
2023/06/10 10:54:07;;;;;;;;;;;23.40;54.00;;;;;;5097187;28;19919;-65
2023/06/10 10:56:33;;;;;;;;;;;23.40;53.80;;;;;;5096836;28;19920;-65
2023/06/10 10:59:06;;;;;;;;;;;23.40;53.40;;;;;;5097024;28;20305;-65
2023/06/10 11:01:39;;;;;;;;;;;23.40;53.30;;;;;;5096816;28;19973;-67
2023/06/10 11:04:06;;;;;;;;;;;23.40;53.30;;;;;;5115048;28;20276;-68
2023/06/10 11:06:32;;;;;;;;;;;23.40;53.00;;;;;;5095775;28;19969;-68
2023/06/10 11:08:59;;;;;;;;;;;23.50;53.30;;;;;;5096626;28;20326;-67
2023/06/10 11:11:26;;;;;;;;;;;23.50;53.20;;;;;;5113796;28;19927;-68
2023/06/10 11:14:09;;;;;;;;;;;23.50;53.30;;;;;;5114030;28;20022;-67
2023/06/10 11:16:42;;;;;;;;;;;23.50;52.90;;;;;;5094474;28;20290;-67
2023/06/10 11:19:08;;;;;;;;;;;23.50;52.90;;;;;;5094204;28;20420;-66
2023/06/10 11:21:54;;;;;;;;;;;23.60;52.80;;;;;;5094330;28;19920;-67
2023/06/10 11:24:19;;;;;;;;;;;23.60;52.90;;;;;;5076249;28;19924;-63
2023/06/10 11:26:45;;;;;;;;;;;23.60;52.70;;;;;;5094410;28;19927;-63
2023/06/10 11:29:10;;;;;;;;;;;23.60;52.60;;;;;;5109261;28;19965;-63
2023/06/10 11:31:40;;;;;;;;;;;23.60;52.90;;;;;;5094046;28;19924;-63
2023/06/10 11:34:06;;;;;;;;;;;23.50;52.50;;;;;;5076193;28;19920;-63
2023/06/10 11:36:33;;;;;;;;;;;23.50;52.60;;;;;;5076111;28;19920;-63
2023/06/10 11:39:00;;;;;;;;;;;23.50;52.60;;;;;;5076070;28;19927;-63
2023/06/10 11:41:26;;;;;;;;;;;23.50;52.50;;;;;;5076070;28;19927;-63
2023/06/10 11:43:53;;;;;;;;;;;23.40;52.50;;;;;;5076054;28;20295;-63
2023/06/10 11:46:18;;;;;;;;;;;23.50;52.50;;;;;;5093715;28;19973;-63
2023/06/10 11:48:51;;;;;;;;;;;23.50;53.40;;;;;;5075561;28;19924;-63
2023/06/10 11:51:16;;;;;;;;;;;23.50;52.70;;;;;;5071849;28;19928;-64
2023/06/10 11:53:44;;;;;;;;;;;23.40;52.40;;;;;;5083569;28;19981;-66
2023/06/10 11:56:09;;;;;;;;;;;23.40;52.30;;;;;;5090789;28;19946;-63
2023/06/10 11:58:35;;;;;;;;;;;23.40;52.30;;;;;;5114055;28;20426;-64
2023/06/10 12:01:01;;;;;;;;;;;23.40;52.30;;;;;;5095562;28;19920;-64
2023/06/10 12:03:27;;;;;;;;;;;23.40;52.40;;;;;;5113963;28;19927;-64
2023/06/10 12:05:54;;;;;;;;;;;23.40;52.30;;;;;;5095123;28;19920;-64
2023/06/10 12:08:20;;;;;;;;;;;23.40;52.30;;;;;;5095304;28;19926;-65
2023/06/10 12:10:45;;;;;;;;;;;23.40;52.20;;;;;;5095075;28;19924;-65
2023/06/10 12:13:11;;;;;;;;;;;23.40;52.10;;;;;;5113767;28;20002;-64
2023/06/10 12:15:36;;;;;;;;;;;23.40;52.10;;;;;;5095706;28;19920;-64
2023/06/10 12:18:02;;;;;;;;;;;23.40;52.10;;;;;;5113627;28;20398;-65
2023/06/10 12:20:29;;;;;;;;;;;23.40;52.00;;;;;;5113687;28;19927;-64
2023/06/10 12:22:55;;;;;;;;;;;23.40;52.00;;;;;;5095574;28;20255;-65
2023/06/10 12:25:25;;;;;;;;;;;23.40;51.90;;;;;;5095265;28;19946;-63
2023/06/10 12:27:52;;;;;;;;;;;23.40;51.90;;;;;;5094915;28;19969;-63
2023/06/10 12:30:19;;;;;;;;;;;23.40;51.90;;;;;;5111988;28;20325;-63
2023/06/10 12:32:45;;;;;;;;;;;23.40;51.90;;;;;;5112921;28;20022;-64
2023/06/10 12:35:12;;;;;;;;;;;23.40;51.80;;;;;;5113427;28;19971;-64
2023/06/10 12:37:38;;;;;;;;;;;23.40;51.80;;;;;;5095030;28;19920;-63
2023/06/10 12:40:06;;;;;;;;;;;23.50;51.80;;;;;;5094871;28;19920;-63
2023/06/10 12:42:34;;;;;;;;;;;23.50;51.80;;;;;;5095199;28;19919;-63
2023/06/10 12:45:01;;;;;;;;;;;23.50;51.80;;;;;;5094889;28;19920;-63
2023/06/10 12:47:31;;;;;;;;;;;23.50;51.70;;;;;;5095037;28;19920;-63
2023/06/10 12:49:58;;;;;;;;;;;23.50;51.70;;;;;;5094842;28;19919;-63
2023/06/10 12:52:24;;;;;;;;;;;23.50;51.60;;;;;;5094767;28;19923;-63
2023/06/10 12:54:50;;;;;;;;;;;23.50;51.50;;;;;;5113174;28;19924;-64
2023/06/10 12:57:15;;;;;;;;;;;23.50;51.50;;;;;;5094994;28;19963;-63
2023/06/10 12:59:42;;;;;;;;;;;23.50;51.50;;;;;;5112903;28;19919;-63
2023/06/10 13:02:07;;;;;;;;;;;23.50;51.40;;;;;;5094563;28;19919;-63
2023/06/10 13:04:33;;;;;;;;;;;23.50;51.30;;;;;;5113085;28;19950;-63
2023/06/10 13:06:59;;;;;;;;;;;23.50;51.30;;;;;;5094850;28;20022;-63
2023/06/10 13:09:24;;;;;;;;;;;23.50;51.30;;;;;;5094698;28;19937;-64
2023/06/10 13:11:50;;;;;;;;;;;23.50;51.20;;;;;;5112471;28;19963;-64
2023/06/10 13:14:15;;;;;;;;;;;23.50;51.20;;;;;;5094426;28;19920;-63
2023/06/10 13:16:41;;;;;;;;;;;23.50;51.20;;;;;;5128800;28;19969;-64
2023/06/10 13:19:06;;;;;;;;;;;23.50;51.10;;;;;;5094705;28;20014;-63
2023/06/10 13:21:32;;;;;;;;;;;23.50;51.10;;;;;;5112930;28;19919;-63
2023/06/10 13:23:58;;;;;;;;;;;23.50;51.00;;;;;;5112538;28;19927;-63
2023/06/10 13:26:23;;;;;;;;;;;23.60;51.00;;;;;;5094745;28;19919;-63
2023/06/10 13:28:49;;;;;;;;;;;23.60;51.00;;;;;;5094492;28;19955;-63
2023/06/10 13:31:14;;;;;;;;;;;23.60;50.90;;;;;;5094479;28;20314;-64
2023/06/10 13:33:40;;;;;;;;;;;23.60;50.90;;;;;;5094273;28;19923;-63
2023/06/10 13:36:06;;;;;;;;;;;23.60;50.80;;;;;;5112530;28;19927;-63
2023/06/10 13:38:31;;;;;;;;;;;23.60;50.80;;;;;;5094674;28;19927;-63
2023/06/10 13:40:57;;;;;;;;;;;23.60;50.80;;;;;;5128722;28;19920;-64
2023/06/10 13:43:23;;;;;;;;;;;23.60;50.70;;;;;;5094470;28;19924;-63
2023/06/10 13:45:48;;;;;;;;;;;23.60;50.70;;;;;;5112562;28;19930;-64
2023/06/10 13:48:14;;;;;;;;;;;23.60;50.70;;;;;;5094056;28;19926;-63
2023/06/10 13:50:40;;;;;;;;;;;23.60;50.60;;;;;;5094709;28;19926;-63
2023/06/10 13:53:05;;;;;;;;;;;23.60;50.60;;;;;;5112609;28;20379;-63
2023/06/10 13:55:31;;;;;;;;;;;23.70;50.60;;;;;;5112338;28;20290;-63
2023/06/10 13:57:56;;;;;;;;;;;23.70;50.50;;;;;;5112507;28;20371;-64
2023/06/10 14:00:22;;;;;;;;;;;23.70;50.40;;;;;;5094300;28;19924;-63
2023/06/10 14:02:47;;;;;;;;;;;23.70;50.40;;;;;;5128191;28;19927;-64
2023/06/10 14:05:13;;;;;;;;;;;23.70;50.30;;;;;;5094369;28;19946;-64
2023/06/10 14:07:40;;;;;;;;;;;23.70;50.30;;;;;;5093950;28;19946;-63
2023/06/10 14:10:08;;;;;;;;;;;23.70;50.30;;;;;;5094224;28;19923;-63
2023/06/10 14:12:33;;;;;;;;;;;23.70;50.20;;;;;;5111870;28;19963;-64
2023/06/10 14:14:59;;;;;;;;;;;23.70;50.20;;;;;;5094220;28;19993;-64